sensor_id;sensor_type;location;lat;lon;timestamp;P1;durP1;ratioP1;P2;durP2;ratioP2
30466;SDS011;17258;52.560;13.046;2024-03-22T00:04:16;4.67;;;4.27;;
30466;SDS011;17258;52.560;13.046;2024-03-22T00:14:17;6.80;;;4.40;;
30466;SDS011;17258;52.560;13.046;2024-03-22T00:24:20;4.95;;;4.55;;
30466;SDS011;17258;52.560;13.046;2024-03-22T00:34:21;4.60;;;4.20;;
30466;SDS011;17258;52.560;13.046;2024-03-22T00:44:22;5.77;;;4.97;;
30466;SDS011;17258;52.560;13.046;2024-03-22T00:54:22;6.03;;;5.43;;
30466;SDS011;17258;52.560;13.046;2024-03-22T01:04:23;6.10;;;5.60;;
30466;SDS011;17258;52.560;13.046;2024-03-22T01:14:24;7.07;;;6.28;;
30466;SDS011;17258;52.560;13.046;2024-03-22T01:24:24;7.27;;;5.60;;
30466;SDS011;17258;52.560;13.046;2024-03-22T01:34:25;6.60;;;5.95;;
30466;SDS011;17258;52.560;13.046;2024-03-22T01:44:27;6.57;;;6.07;;
30466;SDS011;17258;52.560;13.046;2024-03-22T01:54:28;6.90;;;6.18;;
30466;SDS011;17258;52.560;13.046;2024-03-22T02:04:30;7.22;;;6.50;;
30466;SDS011;17258;52.560;13.046;2024-03-22T02:14:31;7.68;;;6.97;;
30466;SDS011;17258;52.560;13.046;2024-03-22T02:24:31;6.33;;;5.80;;
30466;SDS011;17258;52.560;13.046;2024-03-22T02:34:32;12.37;;;6.43;;
30466;SDS011;17258;52.560;13.046;2024-03-22T02:44:33;7.30;;;6.63;;
30466;SDS011;17258;52.560;13.046;2024-03-22T02:54:33;10.43;;;7.45;;
30466;SDS011;17258;52.560;13.046;2024-03-22T03:04:34;6.93;;;6.28;;
30466;SDS011;17258;52.560;13.046;2024-03-22T03:14:35;6.80;;;6.07;;
30466;SDS011;17258;52.560;13.046;2024-03-22T03:24:35;7.07;;;6.47;;
30466;SDS011;17258;52.560;13.046;2024-03-22T03:34:36;6.67;;;5.97;;
30466;SDS011;17258;52.560;13.046;2024-03-22T03:44:37;7.20;;;6.55;;
30466;SDS011;17258;52.560;13.046;2024-03-22T03:54:38;7.45;;;6.75;;
30466;SDS011;17258;52.560;13.046;2024-03-22T04:04:39;6.63;;;5.90;;
30466;SDS011;17258;52.560;13.046;2024-03-22T04:14:39;7.05;;;6.25;;
30466;SDS011;17258;52.560;13.046;2024-03-22T04:24:40;8.63;;;6.33;;
30466;SDS011;17258;52.560;13.046;2024-03-22T04:34:41;6.22;;;5.35;;
30466;SDS011;17258;52.560;13.046;2024-03-22T04:44:42;7.30;;;5.97;;
30466;SDS011;17258;52.560;13.046;2024-03-22T04:54:43;7.82;;;6.10;;
30466;SDS011;17258;52.560;13.046;2024-03-22T05:04:44;5.53;;;5.03;;
30466;SDS011;17258;52.560;13.046;2024-03-22T05:14:46;6.10;;;5.50;;
30466;SDS011;17258;52.560;13.046;2024-03-22T05:24:46;5.30;;;4.82;;
30466;SDS011;17258;52.560;13.046;2024-03-22T05:34:47;8.00;;;6.80;;
30466;SDS011;17258;52.560;13.046;2024-03-22T05:44:48;8.27;;;6.70;;
30466;SDS011;17258;52.560;13.046;2024-03-22T05:54:48;7.13;;;6.43;;
30466;SDS011;17258;52.560;13.046;2024-03-22T06:04:49;6.85;;;6.05;;
30466;SDS011;17258;52.560;13.046;2024-03-22T06:14:50;6.93;;;6.32;;
30466;SDS011;17258;52.560;13.046;2024-03-22T06:24:51;8.75;;;7.90;;
30466;SDS011;17258;52.560;13.046;2024-03-22T06:34:52;22.63;;;21.02;;
30466;SDS011;17258;52.560;13.046;2024-03-22T06:44:53;18.17;;;16.80;;
30466;SDS011;17258;52.560;13.046;2024-03-22T06:54:53;18.10;;;16.67;;
30466;SDS011;17258;52.560;13.046;2024-03-22T07:04:57;23.30;;;21.20;;
30466;SDS011;17258;52.560;13.046;2024-03-22T07:14:59;24.63;;;22.67;;
30466;SDS011;17258;52.560;13.046;2024-03-22T07:25:01;26.20;;;23.83;;
30466;SDS011;17258;52.560;13.046;2024-03-22T07:35:02;24.20;;;21.90;;
30466;SDS011;17258;52.560;13.046;2024-03-22T07:45:03;24.13;;;22.23;;
30466;SDS011;17258;52.560;13.046;2024-03-22T07:55:04;26.25;;;23.92;;
30466;SDS011;17258;52.560;13.046;2024-03-22T08:05:06;25.38;;;23.27;;
30466;SDS011;17258;52.560;13.046;2024-03-22T08:15:07;24.40;;;22.50;;
30466;SDS011;17258;52.560;13.046;2024-03-22T08:25:11;27.15;;;24.98;;
30466;SDS011;17258;52.560;13.046;2024-03-22T08:35:12;26.90;;;24.77;;
30466;SDS011;17258;52.560;13.046;2024-03-22T08:45:13;25.60;;;23.60;;
30466;SDS011;17258;52.560;13.046;2024-03-22T08:55:14;28.35;;;26.08;;
30466;SDS011;17258;52.560;13.046;2024-03-22T09:05:14;28.95;;;26.60;;
30466;SDS011;17258;52.560;13.046;2024-03-22T09:15:15;27.45;;;25.27;;
30466;SDS011;17258;52.560;13.046;2024-03-22T09:25:16;28.52;;;25.88;;
30466;SDS011;17258;52.560;13.046;2024-03-22T09:35:16;30.07;;;27.37;;
30466;SDS011;17258;52.560;13.046;2024-03-22T09:45:20;29.45;;;26.98;;
30466;SDS011;17258;52.560;13.046;2024-03-22T09:55:23;28.42;;;26.13;;
30466;SDS011;17258;52.560;13.046;2024-03-22T10:05:25;28.08;;;25.58;;
30466;SDS011;17258;52.560;13.046;2024-03-22T10:15:25;28.13;;;25.88;;
30466;SDS011;17258;52.560;13.046;2024-03-22T10:25:26;30.38;;;27.85;;
30466;SDS011;17258;52.560;13.046;2024-03-22T10:35:28;29.83;;;27.48;;
30466;SDS011;17258;52.560;13.046;2024-03-22T10:45:29;31.50;;;28.55;;
30466;SDS011;17258;52.560;13.046;2024-03-22T10:55:32;33.40;;;30.38;;
30466;SDS011;17258;52.560;13.046;2024-03-22T11:05:48;32.90;;;30.13;;
30466;SDS011;17258;52.560;13.046;2024-03-22T11:15:53;29.13;;;26.57;;
30466;SDS011;17258;52.560;13.046;2024-03-22T11:25:54;31.55;;;28.85;;
30466;SDS011;17258;52.560;13.046;2024-03-22T11:35:59;28.27;;;25.80;;
30466;SDS011;17258;52.560;13.046;2024-03-22T11:46:01;25.65;;;23.33;;
30466;SDS011;17258;52.560;13.046;2024-03-22T11:56:03;23.67;;;21.88;;
30466;SDS011;17258;52.560;13.046;2024-03-22T12:06:04;23.42;;;21.40;;
30466;SDS011;17258;52.560;13.046;2024-03-22T12:16:09;22.33;;;20.52;;
30466;SDS011;17258;52.560;13.046;2024-03-22T12:26:10;22.90;;;21.07;;
30466;SDS011;17258;52.560;13.046;2024-03-22T12:36:10;17.43;;;16.00;;
30466;SDS011;17258;52.560;13.046;2024-03-22T12:46:11;13.30;;;12.23;;
30466;SDS011;17258;52.560;13.046;2024-03-22T12:56:12;24.50;;;22.45;;
30466;SDS011;17258;52.560;13.046;2024-03-22T13:06:13;23.80;;;21.98;;
30466;SDS011;17258;52.560;13.046;2024-03-22T13:16:13;23.07;;;21.30;;
30466;SDS011;17258;52.560;13.046;2024-03-22T13:26:14;23.80;;;22.05;;
30466;SDS011;17258;52.560;13.046;2024-03-22T13:36:15;22.43;;;20.60;;
30466;SDS011;17258;52.560;13.046;2024-03-22T13:46:16;21.25;;;19.73;;
30466;SDS011;17258;52.560;13.046;2024-03-22T13:56:17;20.67;;;19.15;;
30466;SDS011;17258;52.560;13.046;2024-03-22T14:06:18;20.00;;;18.60;;
30466;SDS011;17258;52.560;13.046;2024-03-22T14:16:18;19.97;;;18.63;;
30466;SDS011;17258;52.560;13.046;2024-03-22T14:26:19;21.00;;;19.55;;
30466;SDS011;17258;52.560;13.046;2024-03-22T14:36:20;21.60;;;19.87;;
30466;SDS011;17258;52.560;13.046;2024-03-22T14:46:23;22.90;;;21.15;;
30466;SDS011;17258;52.560;13.046;2024-03-22T14:56:29;19.02;;;17.42;;
30466;SDS011;17258;52.560;13.046;2024-03-22T15:06:29;20.13;;;18.43;;
30466;SDS011;17258;52.560;13.046;2024-03-22T15:16:30;10.13;;;9.13;;
30466;SDS011;17258;52.560;13.046;2024-03-22T15:26:31;9.98;;;9.13;;
30466;SDS011;17258;52.560;13.046;2024-03-22T15:36:35;8.88;;;8.07;;
30466;SDS011;17258;52.560;13.046;2024-03-22T15:46:39;8.15;;;7.18;;
30466;SDS011;17258;52.560;13.046;2024-03-22T15:56:39;12.00;;;9.37;;
30466;SDS011;17258;52.560;13.046;2024-03-22T16:06:40;8.57;;;7.65;;
30466;SDS011;17258;52.560;13.046;2024-03-22T16:16:41;9.07;;;6.68;;
30466;SDS011;17258;52.560;13.046;2024-03-22T16:26:42;8.63;;;6.87;;
30466;SDS011;17258;52.560;13.046;2024-03-22T16:36:42;9.33;;;8.37;;
30466;SDS011;17258;52.560;13.046;2024-03-22T16:46:43;9.70;;;8.65;;
30466;SDS011;17258;52.560;13.046;2024-03-22T16:56:44;9.07;;;7.70;;
30466;SDS011;17258;52.560;13.046;2024-03-22T17:06:44;10.25;;;9.23;;
30466;SDS011;17258;52.560;13.046;2024-03-22T17:16:45;10.57;;;9.47;;
30466;SDS011;17258;52.560;13.046;2024-03-22T17:26:50;10.77;;;8.43;;
30466;SDS011;17258;52.560;13.046;2024-03-22T17:36:50;10.93;;;8.17;;
30466;SDS011;17258;52.560;13.046;2024-03-22T17:46:54;8.50;;;7.70;;
30466;SDS011;17258;52.560;13.046;2024-03-22T17:56:54;10.10;;;9.13;;
30466;SDS011;17258;52.560;13.046;2024-03-22T18:06:55;9.87;;;8.87;;
30466;SDS011;17258;52.560;13.046;2024-03-22T18:16:56;9.47;;;8.57;;
30466;SDS011;17258;52.560;13.046;2024-03-22T18:26:57;10.40;;;8.73;;
30466;SDS011;17258;52.560;13.046;2024-03-22T18:36:58;12.95;;;9.35;;
30466;SDS011;17258;52.560;13.046;2024-03-22T18:46:59;9.30;;;8.40;;
30466;SDS011;17258;52.560;13.046;2024-03-22T18:57:00;7.90;;;6.32;;
30466;SDS011;17258;52.560;13.046;2024-03-22T19:07:01;8.60;;;7.78;;
30466;SDS011;17258;52.560;13.046;2024-03-22T19:17:02;10.63;;;8.95;;
30466;SDS011;17258;52.560;13.046;2024-03-22T19:27:03;8.88;;;7.97;;
30466;SDS011;17258;52.560;13.046;2024-03-22T19:37:04;11.02;;;9.93;;
30466;SDS011;17258;52.560;13.046;2024-03-22T19:47:08;11.48;;;9.57;;
30466;SDS011;17258;52.560;13.046;2024-03-22T19:57:09;12.38;;;9.23;;
30466;SDS011;17258;52.560;13.046;2024-03-22T20:07:12;11.15;;;10.02;;
30466;SDS011;17258;52.560;13.046;2024-03-22T20:17:13;10.73;;;9.63;;
30466;SDS011;17258;52.560;13.046;2024-03-22T20:27:14;11.45;;;10.13;;
30466;SDS011;17258;52.560;13.046;2024-03-22T20:37:17;9.18;;;8.27;;
